Time;durP1;ratioP1;P1;durP2;ratioP2;P2;SDS_P1;SDS_P2;PMS_P1;PMS_P2;Temp;Humidity;BMP_temperature;BMP_pressure;BME280_temperature;BME280_humidity;BME280_pressure;Samples;Min_cycle;Max_cycle;Signal;HPM_P1;HPM_P2
2021/12/30 00:02:14;;;;;;;41.83;5.00;;;;;;;;;;4985529;28;20130;-63
2021/12/30 00:04:40;;;;;;;35.08;4.28;;;;;;;;;;5001706;28;20117;-63
2021/12/30 00:07:09;;;;;;;30.25;4.28;;;;;;;;;;4985167;28;20046;-63
2021/12/30 00:09:35;;;;;;;35.33;5.75;;;;;;;;;;4985615;28;20054;-64
2021/12/30 00:12:01;;;;;;;39.92;4.10;;;;;;;;;;4987192;28;20038;-64
2021/12/30 00:14:27;;;;;;;33.17;3.75;;;;;;;;;;4987548;28;20097;-63
2021/12/30 00:16:53;;;;;;;36.20;4.10;;;;;;;;;;4985705;28;20278;-63
2021/12/30 00:19:19;;;;;;;27.95;4.03;;;;;;;;;;4987023;28;20448;-63
2021/12/30 00:21:47;;;;;;;37.13;5.00;;;;;;;;;;4995192;28;20042;-63
2021/12/30 00:24:13;;;;;;;42.45;5.28;;;;;;;;;;4984146;28;20306;-63
2021/12/30 00:26:39;;;;;;;44.72;5.30;;;;;;;;;;4985553;28;20128;-63
2021/12/30 00:29:05;;;;;;;42.17;5.65;;;;;;;;;;4986257;28;20436;-63
2021/12/30 00:31:31;;;;;;;41.22;5.22;;;;;;;;;;4986692;28;20038;-63
2021/12/30 00:33:57;;;;;;;47.33;6.07;;;;;;;;;;4985898;28;20053;-63
2021/12/30 00:36:23;;;;;;;42.25;5.05;;;;;;;;;;4986348;28;20570;-63
2021/12/30 00:38:49;;;;;;;38.20;5.25;;;;;;;;;;4988524;28;20093;-63
2021/12/30 00:41:18;;;;;;;33.63;4.60;;;;;;;;;;4988283;28;20034;-63
2021/12/30 00:43:45;;;;;;;35.92;4.90;;;;;;;;;;4990632;28;20136;-63
2021/12/30 00:46:11;;;;;;;38.55;5.18;;;;;;;;;;4989325;28;20121;-64
2021/12/30 00:48:37;;;;;;;45.10;4.63;;;;;;;;;;4972487;28;20472;-62
2021/12/30 00:51:04;;;;;;;46.35;5.50;;;;;;;;;;5005229;28;20092;-62
2021/12/30 00:53:30;;;;;;;43.97;6.20;;;;;;;;;;4989484;28;20042;-61
2021/12/30 00:55:56;;;;;;;46.78;5.30;;;;;;;;;;4988226;28;20042;-61
2021/12/30 00:58:22;;;;;;;53.30;5.72;;;;;;;;;;4990123;28;20046;-61
2021/12/30 01:00:48;;;;;;;47.05;6.03;;;;;;;;;;4989272;28;20054;-63
2021/12/30 01:03:15;;;;;;;44.45;6.60;;;;;;;;;;4989589;28;20057;-62
2021/12/30 01:05:41;;;;;;;49.28;6.65;;;;;;;;;;4988806;28;20050;-62
2021/12/30 01:08:08;;;;;;;41.60;5.35;;;;;;;;;;4990223;28;20043;-62
2021/12/30 01:10:35;;;;;;;49.38;5.20;;;;;;;;;;4989178;28;20100;-63
2021/12/30 01:13:05;;;;;;;46.55;5.80;;;;;;;;;;4988606;28;20066;-64
2021/12/30 01:15:46;;;;;;;46.97;6.05;;;;;;;;;;4988910;28;20050;-62
2021/12/30 01:19:22;;;;;;;47.80;6.55;;;;;;;;;;4988874;28;20042;-62
2021/12/30 01:21:10;;;;;;;52.67;6.05;;;;;;;;;;4979756;28;20069;-63
2021/12/30 01:23:37;;;;;;;61.30;7.13;;;;;;;;;;4987788;28;20422;-62
2021/12/30 01:26:04;;;;;;;53.95;7.45;;;;;;;;;;4988311;28;20080;-62
2021/12/30 01:28:30;;;;;;;55.28;7.45;;;;;;;;;;4990268;28;20043;-62
2021/12/30 01:30:57;;;;;;;65.05;8.07;;;;;;;;;;4989177;28;20606;-63
2021/12/30 01:33:23;;;;;;;70.65;8.50;;;;;;;;;;4988168;28;20050;-62
2021/12/30 01:35:49;;;;;;;69.18;8.02;;;;;;;;;;4989701;28;20034;-62
2021/12/30 01:38:16;;;;;;;57.88;7.40;;;;;;;;;;4988456;28;20085;-62
2021/12/30 01:40:43;;;;;;;59.70;7.70;;;;;;;;;;4988390;28;20511;-62
2021/12/30 01:43:11;;;;;;;54.92;7.85;;;;;;;;;;4987796;28;20224;-62
2021/12/30 01:45:37;;;;;;;67.38;8.43;;;;;;;;;;4988129;28;20100;-62
2021/12/30 01:48:03;;;;;;;59.90;7.30;;;;;;;;;;4988410;28;20046;-63
2021/12/30 01:50:30;;;;;;;54.05;7.22;;;;;;;;;;4988522;28;20034;-62
2021/12/30 01:52:58;;;;;;;53.88;6.85;;;;;;;;;;4989712;28;20473;-62
2021/12/30 01:55:24;;;;;;;62.15;8.25;;;;;;;;;;4988922;28;20850;-63
2021/12/30 01:57:50;;;;;;;70.32;9.55;;;;;;;;;;4988208;28;20042;-62
2021/12/30 02:00:18;;;;;;;75.80;9.23;;;;;;;;;;5003934;28;20404;-62
2021/12/30 02:02:45;;;;;;;74.32;8.77;;;;;;;;;;4987490;28;20038;-62
2021/12/30 02:05:11;;;;;;;74.32;8.63;;;;;;;;;;4971033;28;20042;-63
2021/12/30 02:07:37;;;;;;;76.03;9.20;;;;;;;;;;5003824;28;20047;-62
2021/12/30 02:10:04;;;;;;;70.35;8.75;;;;;;;;;;4987478;28;20077;-63
2021/12/30 02:12:35;;;;;;;75.05;9.32;;;;;;;;;;4993883;28;20038;-62
2021/12/30 02:15:02;;;;;;;66.13;7.78;;;;;;;;;;4988517;28;20133;-62
2021/12/30 02:17:28;;;;;;;68.63;8.63;;;;;;;;;;4986871;28;20073;-62
2021/12/30 02:19:58;;;;;;;71.03;8.70;;;;;;;;;;4987211;28;20058;-62
2021/12/30 02:22:24;;;;;;;73.72;9.15;;;;;;;;;;4987063;28;20125;-61
2021/12/30 02:24:51;;;;;;;70.50;9.05;;;;;;;;;;4987762;28;20050;-62
2021/12/30 02:27:17;;;;;;;61.53;8.32;;;;;;;;;;4986029;28;20097;-62
2021/12/30 02:29:43;;;;;;;68.60;9.95;;;;;;;;;;4987683;28;20121;-62
2021/12/30 02:32:10;;;;;;;66.47;8.55;;;;;;;;;;4986454;28;20039;-62
2021/12/30 02:34:38;;;;;;;66.05;8.18;;;;;;;;;;4988484;28;20089;-62
2021/12/30 02:37:04;;;;;;;86.00;9.63;;;;;;;;;;4986086;28;20050;-62
2021/12/30 02:39:31;;;;;;;76.53;9.27;;;;;;;;;;4986192;28;20046;-62
2021/12/30 02:41:57;;;;;;;66.75;9.00;;;;;;;;;;4986712;28;20085;-62
2021/12/30 02:44:23;;;;;;;68.28;8.40;;;;;;;;;;4987459;28;20078;-61
2021/12/30 02:46:51;;;;;;;59.55;7.43;;;;;;;;;;4987282;28;20052;-62
2021/12/30 02:49:17;;;;;;;65.28;7.88;;;;;;;;;;5001990;28;20077;-61
2021/12/30 02:51:43;;;;;;;75.00;8.02;;;;;;;;;;4987426;28;20046;-61
2021/12/30 02:54:09;;;;;;;70.10;8.35;;;;;;;;;;4988162;28;20544;-62
2021/12/30 02:56:35;;;;;;;71.30;8.60;;;;;;;;;;4988194;28;20702;-62
2021/12/30 02:59:01;;;;;;;68.88;8.23;;;;;;;;;;4987712;28;20038;-63
2021/12/30 03:01:28;;;;;;;70.35;8.52;;;;;;;;;;4986052;28;20047;-63
2021/12/30 03:03:55;;;;;;;68.45;8.10;;;;;;;;;;4987652;28;20034;-62
2021/12/30 03:06:22;;;;;;;73.68;8.10;;;;;;;;;;4986223;28;20112;-61
2021/12/30 03:08:48;;;;;;;80.78;8.73;;;;;;;;;;4985607;28;20049;-61
2021/12/30 03:11:14;;;;;;;69.30;8.57;;;;;;;;;;4986768;28;20081;-61
2021/12/30 03:13:43;;;;;;;74.38;9.02;;;;;;;;;;4987257;28;20069;-62
2021/12/30 03:16:15;;;;;;;74.25;9.80;;;;;;;;;;4985903;28;20104;-62
2021/12/30 03:18:42;;;;;;;63.92;7.97;;;;;;;;;;4986839;28;20042;-61
2021/12/30 03:21:09;;;;;;;77.80;9.60;;;;;;;;;;4987052;28;20513;-61
2021/12/30 03:23:36;;;;;;;66.18;7.97;;;;;;;;;;4987315;28;20038;-61
2021/12/30 03:26:03;;;;;;;66.60;8.90;;;;;;;;;;4986703;28;20042;-62
2021/12/30 03:28:29;;;;;;;76.50;10.43;;;;;;;;;;4986720;28;20034;-61
2021/12/30 03:30:58;;;;;;;77.15;9.50;;;;;;;;;;4985990;28;20396;-61
2021/12/30 03:33:26;;;;;;;77.75;9.32;;;;;;;;;;4986855;28;20042;-62
2021/12/30 03:35:52;;;;;;;80.13;10.38;;;;;;;;;;4969557;28;20042;-62
2021/12/30 03:38:18;;;;;;;77.63;9.52;;;;;;;;;;4986604;28;20042;-61
2021/12/30 03:40:44;;;;;;;75.38;9.48;;;;;;;;;;4987255;28;20558;-61
2021/12/30 03:43:10;;;;;;;75.90;9.90;;;;;;;;;;4985231;28;20049;-62
2021/12/30 03:45:36;;;;;;;70.53;8.88;;;;;;;;;;4994974;28;20101;-62
2021/12/30 03:48:02;;;;;;;82.82;10.65;;;;;;;;;;4985443;28;20046;-63
2021/12/30 03:50:29;;;;;;;78.82;10.45;;;;;;;;;;4985981;28;20074;-61
2021/12/30 03:52:57;;;;;;;83.50;11.45;;;;;;;;;;4986935;28;20042;-61
2021/12/30 03:55:24;;;;;;;80.68;11.63;;;;;;;;;;4985201;28;20484;-61
2021/12/30 03:57:51;;;;;;;77.40;11.85;;;;;;;;;;4990911;28;20049;-62
2021/12/30 04:00:18;;;;;;;77.68;13.35;;;;;;;;;;4986914;28;20053;-61
2021/12/30 04:02:44;;;;;;;94.95;14.05;;;;;;;;;;4985693;28;20042;-61
2021/12/30 04:05:10;;;;;;;84.30;13.82;;;;;;;;;;4984902;28;20112;-64
2021/12/30 04:07:36;;;;;;;95.05;16.15;;;;;;;;;;4985309;28;20047;-62
2021/12/30 04:10:03;;;;;;;92.07;15.07;;;;;;;;;;4984892;28;20053;-62
2021/12/30 04:12:29;;;;;;;90.13;15.50;;;;;;;;;;4986312;28;20038;-62
2021/12/30 04:14:55;;;;;;;85.53;15.25;;;;;;;;;;4989651;28;20465;-62
2021/12/30 04:17:22;;;;;;;101.07;16.92;;;;;;;;;;4988949;28;20085;-63
2021/12/30 04:19:49;;;;;;;92.57;16.90;;;;;;;;;;4990126;28;20062;-63
2021/12/30 04:22:18;;;;;;;87.45;17.02;;;;;;;;;;4989795;28;20046;-62
2021/12/30 04:24:44;;;;;;;84.78;17.25;;;;;;;;;;4990135;28;20040;-62
2021/12/30 04:27:10;;;;;;;81.18;17.48;;;;;;;;;;4990564;28;20057;-62
2021/12/30 04:29:36;;;;;;;91.57;18.20;;;;;;;;;;4990100;28;20145;-62
2021/12/30 04:32:03;;;;;;;89.35;19.25;;;;;;;;;;4990341;28;20412;-62
2021/12/30 04:34:29;;;;;;;110.07;21.98;;;;;;;;;;4990368;28;20057;-62
2021/12/30 04:36:58;;;;;;;98.85;21.05;;;;;;;;;;4990615;28;20038;-62
2021/12/30 04:39:28;;;;;;;95.25;22.60;;;;;;;;;;4990144;28;20049;-64
2021/12/30 04:41:54;;;;;;;100.82;21.98;;;;;;;;;;4988700;28;20109;-62
2021/12/30 04:44:21;;;;;;;86.00;20.55;;;;;;;;;;4972875;28;20081;-62
2021/12/30 04:46:47;;;;;;;98.13;22.48;;;;;;;;;;4990603;28;20066;-62
2021/12/30 04:49:13;;;;;;;112.05;23.88;;;;;;;;;;4988953;28;20052;-63
2021/12/30 04:51:39;;;;;;;92.32;22.77;;;;;;;;;;4989944;28;20065;-63
2021/12/30 04:54:05;;;;;;;98.10;23.42;;;;;;;;;;4988764;28;20085;-62
2021/12/30 04:56:31;;;;;;;106.38;24.35;;;;;;;;;;4988803;28;20073;-62
2021/12/30 04:58:57;;;;;;;112.28;23.40;;;;;;;;;;4989390;28;20262;-62
2021/12/30 05:01:23;;;;;;;107.05;22.65;;;;;;;;;;4988813;28;20468;-62
2021/12/30 05:03:49;;;;;;;102.55;23.88;;;;;;;;;;4988857;28;20038;-62
2021/12/30 05:06:16;;;;;;;88.95;21.65;;;;;;;;;;4997248;28;20477;-63
2021/12/30 05:08:42;;;;;;;96.43;22.10;;;;;;;;;;4988246;28;20057;-63
2021/12/30 05:11:08;;;;;;;88.15;20.67;;;;;;;;;;4987567;28;20046;-63
2021/12/30 05:13:34;;;;;;;94.60;22.08;;;;;;;;;;4987986;28;20130;-63
2021/12/30 05:16:00;;;;;;;91.88;20.95;;;;;;;;;;4989563;28;20141;-63
2021/12/30 05:18:33;;;;;;;95.30;21.17;;;;;;;;;;4990250;28;20443;-63
2021/12/30 05:21:01;;;;;;;92.05;22.00;;;;;;;;;;4989693;28;20121;-62
2021/12/30 05:23:27;;;;;;;92.55;21.05;;;;;;;;;;4989346;28;20097;-63
2021/12/30 05:25:54;;;;;;;107.20;21.85;;;;;;;;;;4989141;28;20045;-63
2021/12/30 05:28:20;;;;;;;105.60;23.38;;;;;;;;;;4989402;28;20104;-62
2021/12/30 05:30:46;;;;;;;97.25;22.38;;;;;;;;;;4989941;28;20030;-62
2021/12/30 05:33:12;;;;;;;98.82;22.48;;;;;;;;;;4987842;28;20129;-62
2021/12/30 05:35:38;;;;;;;122.10;24.73;;;;;;;;;;4989358;28;20042;-63
2021/12/30 05:38:05;;;;;;;111.07;23.80;;;;;;;;;;4977511;28;20100;-63
2021/12/30 05:40:32;;;;;;;110.28;24.75;;;;;;;;;;4989289;28;20073;-63
2021/12/30 05:42:58;;;;;;;107.57;24.88;;;;;;;;;;4988557;28;20457;-62
2021/12/30 05:45:26;;;;;;;109.25;25.35;;;;;;;;;;4989146;28;20389;-62
2021/12/30 05:47:53;;;;;;;108.47;25.08;;;;;;;;;;4971770;28;20050;-63
2021/12/30 05:50:21;;;;;;;105.82;25.05;;;;;;;;;;4994945;28;20551;-62
2021/12/30 05:52:47;;;;;;;108.53;24.35;;;;;;;;;;4987969;28;20050;-62
2021/12/30 05:55:13;;;;;;;120.68;25.42;;;;;;;;;;4988624;28;20378;-62
2021/12/30 05:57:40;;;;;;;115.57;26.75;;;;;;;;;;4988761;28;20061;-63
2021/12/30 06:00:07;;;;;;;103.35;25.02;;;;;;;;;;4987997;28;20440;-63
2021/12/30 06:02:33;;;;;;;114.85;27.63;;;;;;;;;;4972014;28;20510;-62
2021/12/30 06:04:59;;;;;;;126.03;29.30;;;;;;;;;;4988028;28;20388;-62
2021/12/30 06:07:25;;;;;;;122.32;29.77;;;;;;;;;;4987168;28;20489;-62
2021/12/30 06:09:51;;;;;;;125.50;32.13;;;;;;;;;;4988438;28;20515;-64
2021/12/30 06:12:18;;;;;;;133.23;32.80;;;;;;;;;;4987019;28;20081;-62
2021/12/30 06:14:44;;;;;;;141.82;33.92;;;;;;;;;;4987299;28;20042;-63
2021/12/30 06:17:13;;;;;;;127.18;33.95;;;;;;;;;;4988063;28;20571;-62
2021/12/30 06:19:39;;;;;;;136.13;35.17;;;;;;;;;;4988001;28;20483;-62
2021/12/30 06:22:06;;;;;;;149.80;37.75;;;;;;;;;;4988498;28;20050;-63
2021/12/30 06:24:33;;;;;;;140.70;37.47;;;;;;;;;;4987473;28;20089;-62
2021/12/30 06:26:59;;;;;;;152.75;38.60;;;;;;;;;;4988265;28;20050;-62
2021/12/30 06:29:25;;;;;;;149.45;38.95;;;;;;;;;;4986203;28;20501;-63
2021/12/30 06:31:51;;;;;;;149.02;37.10;;;;;;;;;;4986574;28;20038;-62
2021/12/30 06:34:17;;;;;;;161.52;41.72;;;;;;;;;;4987698;28;20045;-63
2021/12/30 06:36:43;;;;;;;154.45;39.75;;;;;;;;;;4986468;28;20053;-62
2021/12/30 06:39:09;;;;;;;134.13;38.30;;;;;;;;;;4988267;28;20045;-62
2021/12/30 06:41:35;;;;;;;113.93;36.30;;;;;;;;;;4988367;28;20084;-62
2021/12/30 06:44:02;;;;;;;112.20;35.88;;;;;;;;;;4995927;28;20078;-63
2021/12/30 06:46:28;;;;;;;109.68;34.60;;;;;;;;;;4986931;28;20100;-64
2021/12/30 06:48:54;;;;;;;106.40;34.35;;;;;;;;;;4995297;28;20489;-64
2021/12/30 06:51:26;;;;;;;95.03;31.98;;;;;;;;;;4985879;28;20042;-63
2021/12/30 06:53:54;;;;;;;83.65;31.55;;;;;;;;;;4987387;28;20427;-63
2021/12/30 06:56:21;;;;;;;88.07;31.52;;;;;;;;;;4984940;28;20104;-64
2021/12/30 06:58:47;;;;;;;82.50;28.90;;;;;;;;;;4987174;28;20057;-64
2021/12/30 07:01:14;;;;;;;73.57;27.75;;;;;;;;;;4987860;28;20161;-63
2021/12/30 07:03:40;;;;;;;77.93;27.85;;;;;;;;;;4987044;28;20488;-63
2021/12/30 07:06:07;;;;;;;86.88;28.15;;;;;;;;;;4986636;28;20137;-64
2021/12/30 07:08:33;;;;;;;73.55;25.52;;;;;;;;;;4995626;28;20042;-63
2021/12/30 07:10:59;;;;;;;67.05;24.00;;;;;;;;;;4986219;28;20512;-63
2021/12/30 07:13:25;;;;;;;73.90;25.58;;;;;;;;;;4986203;28;20039;-63
2021/12/30 07:15:51;;;;;;;78.03;25.17;;;;;;;;;;4986328;28;20092;-63
2021/12/30 07:18:18;;;;;;;72.18;23.55;;;;;;;;;;4987579;28;20050;-65
2021/12/30 07:20:44;;;;;;;70.97;24.35;;;;;;;;;;4986270;28;20117;-65
2021/12/30 07:23:10;;;;;;;70.80;23.35;;;;;;;;;;4985927;28;20046;-63
2021/12/30 07:25:36;;;;;;;87.65;25.42;;;;;;;;;;4986159;28;20373;-63
2021/12/30 07:28:03;;;;;;;68.55;22.58;;;;;;;;;;4993582;28;20046;-63
2021/12/30 07:30:29;;;;;;;82.70;24.70;;;;;;;;;;4986133;28;20420;-65
2021/12/30 07:32:56;;;;;;;62.03;20.67;;;;;;;;;;4985995;28;20058;-64
2021/12/30 07:35:22;;;;;;;68.20;23.38;;;;;;;;;;4987602;28;20042;-63
2021/12/30 07:37:49;;;;;;;81.97;25.33;;;;;;;;;;4986302;28;20044;-63
2021/12/30 07:40:16;;;;;;;67.57;22.95;;;;;;;;;;4987680;28;20048;-63
2021/12/30 07:42:42;;;;;;;70.28;22.40;;;;;;;;;;4971060;28;20046;-64
2021/12/30 07:45:09;;;;;;;65.18;23.13;;;;;;;;;;4987653;28;20043;-63
2021/12/30 07:47:36;;;;;;;73.95;22.90;;;;;;;;;;4988483;28;20416;-63
2021/12/30 07:50:02;;;;;;;72.35;22.50;;;;;;;;;;4992726;28;20046;-63
2021/12/30 07:52:28;;;;;;;69.03;22.10;;;;;;;;;;4975344;28;20449;-63
2021/12/30 07:54:54;;;;;;;84.40;24.55;;;;;;;;;;4992505;28;20069;-63
2021/12/30 07:57:22;;;;;;;74.60;22.65;;;;;;;;;;4991153;28;20045;-63
2021/12/30 07:59:51;;;;;;;88.03;24.05;;;;;;;;;;4991504;28;20060;-63
2021/12/30 08:02:18;;;;;;;70.25;20.92;;;;;;;;;;4991207;28;20494;-62
2021/12/30 08:04:44;;;;;;;78.95;23.85;;;;;;;;;;4991474;28;20045;-63
2021/12/30 08:07:10;;;;;;;74.75;22.27;;;;;;;;;;4990156;28;20046;-63
2021/12/30 08:09:36;;;;;;;76.65;22.00;;;;;;;;;;4972841;28;20042;-64
2021/12/30 08:12:03;;;;;;;94.50;23.60;;;;;;;;;;4990893;28;20052;-63
2021/12/30 08:14:29;;;;;;;80.35;23.15;;;;;;;;;;4989608;28;20121;-62
2021/12/30 08:16:56;;;;;;;74.80;22.48;;;;;;;;;;4990664;28;20047;-63
2021/12/30 08:19:23;;;;;;;67.90;21.50;;;;;;;;;;4989120;28;20041;-63
2021/12/30 08:21:49;;;;;;;81.28;21.75;;;;;;;;;;4989142;28;20057;-64
2021/12/30 08:24:15;;;;;;;71.32;19.55;;;;;;;;;;4989394;28;20093;-63
2021/12/30 08:26:41;;;;;;;61.42;18.98;;;;;;;;;;4972716;28;20113;-63
2021/12/30 08:29:07;;;;;;;62.53;19.17;;;;;;;;;;4988856;28;20050;-64
2021/12/30 08:31:34;;;;;;;58.25;18.02;;;;;;;;;;4990945;28;20405;-62
2021/12/30 08:34:00;;;;;;;58.97;19.00;;;;;;;;;;4973440;28;20121;-63
2021/12/30 08:36:26;;;;;;;55.78;17.80;;;;;;;;;;4972004;28;20041;-63
2021/12/30 08:38:52;;;;;;;46.15;15.68;;;;;;;;;;4992825;28;20121;-63
2021/12/30 08:41:18;;;;;;;48.72;16.58;;;;;;;;;;4989224;28;20057;-63
2021/12/30 08:43:44;;;;;;;39.67;15.35;;;;;;;;;;4983172;28;20057;-63
2021/12/30 08:46:10;;;;;;;40.53;15.68;;;;;;;;;;5003578;28;20469;-63
2021/12/30 08:48:37;;;;;;;33.05;14.40;;;;;;;;;;4972295;28;20137;-63
2021/12/30 08:51:03;;;;;;;25.55;11.10;;;;;;;;;;4972215;28;20049;-63
2021/12/30 08:53:30;;;;;;;24.38;11.35;;;;;;;;;;5001218;28;20092;-63
2021/12/30 08:55:56;;;;;;;21.70;11.20;;;;;;;;;;4972405;28;20042;-64
2021/12/30 08:58:22;;;;;;;18.90;10.13;;;;;;;;;;4988122;28;20046;-63
2021/12/30 09:00:48;;;;;;;24.60;10.70;;;;;;;;;;4990402;28;20512;-63
2021/12/30 09:03:16;;;;;;;13.43;7.38;;;;;;;;;;4989154;28;20042;-64
2021/12/30 09:05:42;;;;;;;12.35;7.88;;;;;;;;;;4989334;28;20473;-63
2021/12/30 09:08:08;;;;;;;12.63;7.20;;;;;;;;;;4997412;28;20078;-63
2021/12/30 09:10:40;;;;;;;8.63;6.43;;;;;;;;;;4988503;28;20050;-63
2021/12/30 09:13:07;;;;;;;7.95;6.30;;;;;;;;;;4986012;28;20047;-63
2021/12/30 09:15:33;;;;;;;8.82;6.22;;;;;;;;;;4985695;28;20092;-63
2021/12/30 09:17:59;;;;;;;7.55;5.40;;;;;;;;;;4988856;28;20084;-63
2021/12/30 09:20:25;;;;;;;8.07;5.50;;;;;;;;;;4988908;28;20077;-62
2021/12/30 09:22:52;;;;;;;10.00;6.43;;;;;;;;;;4990423;28;20042;-62
2021/12/30 09:25:23;;;;;;;10.02;6.38;;;;;;;;;;4990525;28;20177;-63
2021/12/30 09:27:49;;;;;;;13.32;8.65;;;;;;;;;;4989321;28;20050;-63
2021/12/30 09:30:16;;;;;;;14.35;8.52;;;;;;;;;;4989310;28;20079;-63
2021/12/30 09:32:43;;;;;;;11.65;7.88;;;;;;;;;;4990248;28;20053;-62
2021/12/30 09:35:10;;;;;;;12.70;8.90;;;;;;;;;;4990399;28;20432;-61
2021/12/30 09:37:36;;;;;;;13.45;8.63;;;;;;;;;;4998556;28;20038;-63
2021/12/30 09:40:04;;;;;;;12.57;8.70;;;;;;;;;;4991817;28;20066;-61
2021/12/30 09:42:30;;;;;;;13.55;7.40;;;;;;;;;;4990258;28;20459;-62
2021/12/30 09:44:56;;;;;;;13.50;7.90;;;;;;;;;;4989405;28;20052;-62
2021/12/30 09:47:22;;;;;;;13.88;8.88;;;;;;;;;;4991282;28;20088;-62
2021/12/30 09:49:50;;;;;;;12.73;7.68;;;;;;;;;;4990977;28;20046;-64
2021/12/30 09:52:16;;;;;;;12.43;7.50;;;;;;;;;;4990010;28;20054;-63
2021/12/30 09:54:42;;;;;;;11.77;6.50;;;;;;;;;;4989725;28;20046;-62
2021/12/30 09:57:09;;;;;;;16.02;7.85;;;;;;;;;;4991270;28;20034;-62
2021/12/30 09:59:35;;;;;;;14.80;7.20;;;;;;;;;;4990162;28;20468;-62
2021/12/30 10:02:01;;;;;;;17.30;8.02;;;;;;;;;;4989163;28;20385;-63
2021/12/30 10:04:31;;;;;;;20.17;8.65;;;;;;;;;;4989597;28;20047;-62
2021/12/30 10:06:58;;;;;;;22.40;10.30;;;;;;;;;;4989392;28;20076;-63
2021/12/30 10:09:39;;;;;;;18.77;9.07;;;;;;;;;;4989441;28;20511;-62
2021/12/30 10:12:05;;;;;;;20.90;7.93;;;;;;;;;;4989206;28;20049;-63
2021/12/30 10:14:32;;;;;;;22.95;10.48;;;;;;;;;;4989399;28;20125;-62
2021/12/30 10:17:14;;;;;;;20.38;10.77;;;;;;;;;;4990450;28;20030;-63
2021/12/30 10:19:40;;;;;;;20.58;10.43;;;;;;;;;;4972108;28;20065;-64
2021/12/30 10:22:14;;;;;;;22.30;11.43;;;;;;;;;;4956101;28;20046;-63
2021/12/30 10:24:40;;;;;;;21.25;9.57;;;;;;;;;;4988882;28;20513;-62
2021/12/30 10:27:07;;;;;;;19.08;10.55;;;;;;;;;;4990616;28;20046;-63
2021/12/30 10:29:40;;;;;;;25.02;12.48;;;;;;;;;;4990398;28;20037;-63
2021/12/30 10:32:14;;;;;;;21.52;9.00;;;;;;;;;;4991031;28;20370;-63
2021/12/30 10:35:00;;;;;;;23.73;9.60;;;;;;;;;;4989349;28;20049;-64
2021/12/30 10:37:26;;;;;;;24.73;9.85;;;;;;;;;;4990472;28;20074;-65
2021/12/30 10:39:52;;;;;;;25.63;10.88;;;;;;;;;;5001409;28;20053;-63
2021/12/30 10:42:21;;;;;;;18.63;6.57;;;;;;;;;;4972599;28;21433;-63
2021/12/30 10:44:51;;;;;;;29.05;7.35;;;;;;;;;;4988869;28;20121;-64
2021/12/30 10:47:24;;;;;;;25.27;9.27;;;;;;;;;;4988750;28;20049;-63
2021/12/30 10:49:59;;;;;;;26.58;9.60;;;;;;;;;;4988408;28;20034;-63
2021/12/30 10:52:26;;;;;;;24.80;8.45;;;;;;;;;;4988610;28;20108;-63
2021/12/30 10:54:53;;;;;;;13.63;4.72;;;;;;;;;;4990265;28;20104;-63
2021/12/30 10:57:19;;;;;;;26.15;6.78;;;;;;;;;;4989948;28;20545;-64
2021/12/30 10:59:51;;;;;;;22.60;6.18;;;;;;;;;;4988612;28;20050;-63
2021/12/30 11:02:21;;;;;;;27.05;5.70;;;;;;;;;;4988812;28;20075;-63
2021/12/30 11:04:48;;;;;;;20.88;5.65;;;;;;;;;;4989831;28;20524;-64
2021/12/30 11:07:16;;;;;;;18.27;5.05;;;;;;;;;;4989078;28;20050;-63
2021/12/30 11:09:47;;;;;;;25.70;6.35;;;;;;;;;;4990307;28;20045;-63
2021/12/30 11:12:13;;;;;;;20.73;6.57;;;;;;;;;;4987694;28;20046;-65
2021/12/30 11:14:39;;;;;;;24.98;6.72;;;;;;;;;;4988742;28;20034;-63
2021/12/30 11:17:10;;;;;;;13.55;4.00;;;;;;;;;;4988264;28;20512;-64
2021/12/30 11:19:40;;;;;;;18.70;6.82;;;;;;;;;;4989989;28;20806;-64
2021/12/30 11:22:10;;;;;;;14.70;4.78;;;;;;;;;;4988177;28;20080;-63
2021/12/30 11:24:37;;;;;;;22.05;7.43;;;;;;;;;;4990145;28;20477;-63
2021/12/30 11:27:05;;;;;;;18.20;4.90;;;;;;;;;;4989753;28;20104;-63
2021/12/30 11:29:34;;;;;;;17.52;4.55;;;;;;;;;;4991101;28;20035;-64
2021/12/30 11:32:00;;;;;;;16.08;4.25;;;;;;;;;;4989542;28;20169;-64
2021/12/30 11:34:27;;;;;;;21.75;4.78;;;;;;;;;;4971541;28;20042;-64
2021/12/30 11:36:54;;;;;;;22.70;5.10;;;;;;;;;;4987470;28;20046;-64
2021/12/30 11:39:21;;;;;;;37.22;6.95;;;;;;;;;;4987004;28;20046;-63
2021/12/30 11:41:53;;;;;;;29.85;5.80;;;;;;;;;;4988965;28;20149;-62
2021/12/30 11:44:35;;;;;;;38.97;6.30;;;;;;;;;;4987340;28;20043;-62
2021/12/30 11:47:02;;;;;;;34.83;5.97;;;;;;;;;;4986934;28;20045;-63
2021/12/30 11:49:47;;;;;;;38.92;6.15;;;;;;;;;;4986982;28;20500;-63
2021/12/30 11:52:13;;;;;;;40.63;6.78;;;;;;;;;;4987527;28;20053;-63
2021/12/30 11:54:40;;;;;;;46.25;7.57;;;;;;;;;;4987070;28;20050;-64
2021/12/30 11:57:28;;;;;;;43.33;7.40;;;;;;;;;;4987314;28;20068;-63
2021/12/30 11:59:58;;;;;;;32.92;6.10;;;;;;;;;;4988758;28;20121;-62
2021/12/30 12:02:33;;;;;;;38.05;6.63;;;;;;;;;;4988971;28;20049;-62
2021/12/30 12:04:59;;;;;;;38.30;6.35;;;;;;;;;;4988456;28;20045;-62
2021/12/30 12:07:25;;;;;;;48.25;8.43;;;;;;;;;;4988705;28;20414;-62
2021/12/30 12:09:51;;;;;;;36.30;6.05;;;;;;;;;;4989135;28;20039;-62
2021/12/30 12:12:37;;;;;;;38.22;7.57;;;;;;;;;;4970009;28;20430;-64
2021/12/30 12:15:04;;;;;;;40.05;6.75;;;;;;;;;;4970731;28;20443;-64
2021/12/30 12:17:30;;;;;;;47.70;8.65;;;;;;;;;;4987920;28;20142;-64
2021/12/30 12:19:56;;;;;;;51.60;8.65;;;;;;;;;;4987112;28;20471;-64
2021/12/30 12:22:24;;;;;;;55.17;8.68;;;;;;;;;;4981726;28;20062;-64
2021/12/30 12:25:10;;;;;;;54.45;9.00;;;;;;;;;;4988137;28;20617;-64
2021/12/30 12:27:38;;;;;;;53.50;10.82;;;;;;;;;;4987699;28;20034;-62
2021/12/30 12:30:06;;;;;;;55.25;8.85;;;;;;;;;;4987617;28;20104;-63
2021/12/30 12:32:34;;;;;;;55.70;10.63;;;;;;;;;;4987416;28;20072;-63
2021/12/30 12:35:19;;;;;;;48.90;10.65;;;;;;;;;;4990745;28;20042;-63
2021/12/30 12:37:47;;;;;;;62.58;11.52;;;;;;;;;;4991201;28;20048;-62
2021/12/30 12:40:16;;;;;;;42.55;6.43;;;;;;;;;;4990975;28;20122;-63
2021/12/30 12:42:51;;;;;;;45.92;7.65;;;;;;;;;;4992754;28;20073;-64
2021/12/30 12:45:22;;;;;;;37.85;6.82;;;;;;;;;;4993524;28;20054;-63
2021/12/30 12:48:08;;;;;;;45.28;7.13;;;;;;;;;;4992358;28;20101;-63
2021/12/30 12:50:38;;;;;;;47.08;7.97;;;;;;;;;;4989749;28;20049;-63
2021/12/30 12:53:19;;;;;;;40.58;6.28;;;;;;;;;;4991996;28;20038;-62
2021/12/30 12:55:45;;;;;;;43.17;6.60;;;;;;;;;;4990934;28;20034;-63
2021/12/30 12:58:11;;;;;;;40.08;6.93;;;;;;;;;;4990620;28;20050;-63
2021/12/30 13:00:37;;;;;;;30.85;4.97;;;;;;;;;;4992272;28;20134;-63
2021/12/30 13:03:03;;;;;;;40.15;6.15;;;;;;;;;;4990566;28;20046;-63
2021/12/30 13:05:29;;;;;;;35.05;5.90;;;;;;;;;;4990505;28;20046;-63
2021/12/30 13:07:57;;;;;;;43.75;7.00;;;;;;;;;;4958519;28;20042;-63
2021/12/30 13:10:23;;;;;;;28.17;4.78;;;;;;;;;;4990742;28;20041;-62
2021/12/30 13:12:49;;;;;;;50.40;8.02;;;;;;;;;;4989883;28;20042;-62
2021/12/30 13:15:16;;;;;;;48.85;7.90;;;;;;;;;;4991474;28;20073;-62
2021/12/30 13:17:44;;;;;;;37.15;6.78;;;;;;;;;;4990161;28;20038;-62
2021/12/30 13:20:11;;;;;;;49.35;7.72;;;;;;;;;;4989905;28;20050;-63
2021/12/30 13:22:37;;;;;;;31.65;5.30;;;;;;;;;;4989506;28;20538;-63
2021/12/30 13:25:04;;;;;;;42.88;7.68;;;;;;;;;;4991379;28;20053;-64
2021/12/30 13:27:32;;;;;;;54.03;18.92;;;;;;;;;;4988743;28;20089;-63
2021/12/30 13:30:07;;;;;;;47.65;8.75;;;;;;;;;;4989048;28;20516;-63
2021/12/30 13:32:34;;;;;;;37.50;6.75;;;;;;;;;;4976721;28;20049;-63
2021/12/30 13:35:06;;;;;;;39.17;7.30;;;;;;;;;;4988901;28;20046;-64
2021/12/30 13:37:38;;;;;;;35.97;6.75;;;;;;;;;;4990101;28;20046;-64
2021/12/30 13:40:13;;;;;;;41.83;7.43;;;;;;;;;;4989921;28;20054;-64
2021/12/30 13:42:45;;;;;;;36.90;6.35;;;;;;;;;;4972033;28;20049;-64
2021/12/30 13:45:11;;;;;;;34.50;5.85;;;;;;;;;;4999420;28;20058;-64
2021/12/30 13:47:39;;;;;;;40.85;7.93;;;;;;;;;;4989806;28;20042;-64
2021/12/30 13:50:15;;;;;;;39.25;7.35;;;;;;;;;;4987815;28;20045;-64
2021/12/30 13:52:43;;;;;;;34.28;5.32;;;;;;;;;;4989971;28;20519;-64
2021/12/30 13:55:12;;;;;;;41.85;7.22;;;;;;;;;;4987909;28;20042;-64
2021/12/30 13:57:39;;;;;;;28.65;6.28;;;;;;;;;;4987999;28;20050;-63
2021/12/30 14:00:10;;;;;;;41.03;7.32;;;;;;;;;;4971474;28;20057;-62
2021/12/30 14:02:36;;;;;;;36.97;6.10;;;;;;;;;;4989296;28;20448;-64
2021/12/30 14:05:13;;;;;;;40.75;6.97;;;;;;;;;;4999121;28;20366;-63
2021/12/30 14:07:44;;;;;;;37.35;7.13;;;;;;;;;;4984524;28;20050;-64
2021/12/30 14:10:14;;;;;;;38.17;7.95;;;;;;;;;;4985783;28;20049;-63
2021/12/30 14:12:54;;;;;;;35.10;6.90;;;;;;;;;;4986782;28;20046;-63
2021/12/30 14:15:21;;;;;;;35.92;6.88;;;;;;;;;;4988957;28;20066;-63
2021/12/30 14:17:56;;;;;;;35.67;7.93;;;;;;;;;;4986496;28;20290;-63
2021/12/30 14:20:22;;;;;;;42.00;8.85;;;;;;;;;;4988440;28;20038;-63
2021/12/30 14:22:48;;;;;;;43.92;8.63;;;;;;;;;;4986800;28;20089;-64
2021/12/30 14:25:27;;;;;;;38.33;8.40;;;;;;;;;;4987290;28;20038;-64
2021/12/30 14:27:53;;;;;;;32.10;5.82;;;;;;;;;;4980898;28;20050;-64